Fredonyer Smt Atmospheric Data: 05/15/2019 Summary  Detailed Graphs  Station List

  Temperature     Wind Precipitation Visibility
Timestamp Air Wet
Bulb
Dew-
point
24-hr
Max
24-hr
Min
Relative
Humidity
Atmospheric
Pressure
Avg
Speed
Avg
Dir
Spot
Speed
Spot
Dir
Max
Speed
Max
Dir
  Rate Situation Start End 1 hr 3 hr 6 hr 12 hr 24 hr   Situation
Date Time °F °F °F °F °F % in Hg mph ° mph ° mph ° Y/N in/hr text Date Time Date Time in in in in in mi text
05/15/2019 12:02 AM 47.48 41.00 32.72 62.96 45.50 56.0 Not Reported 0.00 NW 0.00 SE 1.79 NW No 0.000 Error:Lookup 05/06/2019 04:03 PM 05/06/2019 04:18 PM 0.000 0.000 0.000 0.000 0.000 Not Reported Not Reported
05/15/2019 12:07 AM 47.48 40.64 32.00 62.96 45.50 54.0 Not Reported 1.12 NW 1.79 NW 1.79 NW No 0.000 Error:Lookup 05/06/2019 04:03 PM 05/06/2019 04:18 PM 0.000 0.000 0.000 0.000 0.000 Not Reported Not Reported
05/15/2019 12:12 AM 47.66 40.82 32.18 62.96 45.50 55.0 Not Reported 0.00 W 0.00 W 1.79 NW No 0.000 Error:Lookup 05/06/2019 04:03 PM 05/06/2019 04:18 PM 0.000 0.000 0.000 0.000 0.000 Not Reported Not Reported
05/15/2019 12:17 AM 47.48 40.82 32.00 62.96 45.50 54.0 Not Reported 0.45 N 0.00 S 1.79 NW No 0.000 Error:Lookup 05/06/2019 04:03 PM 05/06/2019 04:18 PM 0.000 0.000 0.000 0.000 0.000 Not Reported Not Reported
05/15/2019 12:22 AM 47.48 40.82 32.00 62.96 45.50 54.0 Not Reported 0.22 W 0.00 W 1.12 N No 0.000 Error:Lookup 05/06/2019 04:03 PM 05/06/2019 04:18 PM 0.000 0.000 0.000 0.000 0.000 Not Reported Not Reported
05/15/2019 12:27 AM 47.30 41.00 33.08 62.96 45.50 57.0 Not Reported 0.00 N 0.00 NE 1.12 N No 0.000 Error:Lookup 05/06/2019 04:03 PM 05/06/2019 04:18 PM 0.000 0.000 0.000 0.000 0.000 Not Reported Not Reported
05/15/2019 12:32 AM 47.12 40.82 32.72 62.96 45.50 57.0 Not Reported 1.12 N 1.57 NE 1.34 NE No 0.000 Error:Lookup 05/06/2019 04:03 PM 05/06/2019 04:18 PM 0.000 0.000 0.000 0.000 0.000 Not Reported Not Reported
05/15/2019 12:37 AM 47.30 40.82 32.72 62.96 45.50 56.0 Not Reported 0.00 E 0.22 E 1.34 NE No 0.000 Error:Lookup 05/06/2019 04:03 PM 05/06/2019 04:18 PM 0.000 0.000 0.000 0.000 0.000 Not Reported Not Reported
05/15/2019 12:42 AM 47.12 40.82 32.90 62.96 45.50 57.0 Not Reported 0.22 NE 0.22 NE 1.57 NE No 0.000 Error:Lookup 05/06/2019 04:03 PM 05/06/2019 04:18 PM 0.000 0.000 0.000 0.000 0.000 Not Reported Not Reported
05/15/2019 12:47 AM 47.84 41.00 32.18 62.96 45.50 54.0 Not Reported 2.01 E 0.00 E 1.57 NE No 0.000 Error:Lookup 05/06/2019 04:03 PM 05/06/2019 04:18 PM 0.000 0.000 0.000 0.000 0.000 Not Reported Not Reported
05/15/2019 12:52 AM 48.20 41.00 31.64 62.96 45.50 52.0 Not Reported 0.89 SW 0.89 S 2.46 SW No 0.000 Error:Lookup 05/06/2019 04:03 PM 05/06/2019 04:18 PM 0.000 0.000 0.000 0.000 0.000 Not Reported Not Reported
05/15/2019 12:57 AM 49.10 41.18 31.28 62.96 45.50 49.0 Not Reported 1.57 W 1.57 SW 2.46 SW No 0.000 Error:Lookup 05/06/2019 04:03 PM 05/06/2019 04:18 PM 0.000 0.000 0.000 0.000 0.000 Not Reported Not Reported
05/15/2019 01:02 AM 48.56 41.36 32.00 62.96 45.50 52.0 Not Reported 0.22 W 0.00 NE 3.13 SW No 0.000 Error:Lookup 05/06/2019 04:03 PM 05/06/2019 04:18 PM 0.000 0.000 0.000 0.000 0.000 Not Reported Not Reported
05/15/2019 01:07 AM 48.38 40.82 31.10 62.96 45.50 50.0 Not Reported 0.67 N 0.89 W 3.13 SW No 0.000 Error:Lookup 05/06/2019 04:03 PM 05/06/2019 04:18 PM 0.000 0.000 0.000 0.000 0.000 Not Reported Not Reported
05/15/2019 01:12 AM 48.38 40.82 31.10 62.96 45.50 50.0 Not Reported 1.12 NW 1.12 NW 1.79 NW No 0.000 Error:Lookup 05/06/2019 04:03 PM 05/06/2019 04:18 PM 0.000 0.000 0.000 0.000 0.000 Not Reported Not Reported
05/15/2019 01:17 AM 48.20 41.00 32.00 62.96 45.50 53.0 Not Reported 0.00 N 0.00 SW 1.79 NW No 0.000 Error:Lookup 05/06/2019 04:03 PM 05/06/2019 04:18 PM 0.000 0.000 0.000 0.000 0.000 Not Reported Not Reported
05/15/2019 01:22 AM 47.84 41.18 32.72 62.96 45.50 55.0 Not Reported 0.00 E 0.00 E 1.79 SW No 0.000 Error:Lookup 05/06/2019 04:03 PM 05/06/2019 04:18 PM 0.000 0.000 0.000 0.000 0.000 Not Reported Not Reported
05/15/2019 01:27 AM 47.48 41.00 32.54 62.96 45.50 55.0 Not Reported 0.00 SE 0.00 SE 1.79 SW No 0.000 Error:Lookup 05/06/2019 04:03 PM 05/06/2019 04:18 PM 0.000 0.000 0.000 0.000 0.000 Not Reported Not Reported
05/15/2019 01:32 AM 47.30 40.82 32.36 62.96 45.50 56.0 Not Reported 0.00 E 0.22 E 0.67 SE No 0.000 Error:Lookup 05/06/2019 04:03 PM 05/06/2019 04:18 PM 0.000 0.000 0.000 0.000 0.000 Not Reported Not Reported
05/15/2019 01:37 AM 47.12 40.64 32.18 62.96 45.50 55.0 Not Reported 0.45 NE 1.12 NE 0.67 SE No 0.000 Error:Lookup 05/06/2019 04:03 PM 05/06/2019 04:18 PM 0.000 0.000 0.000 0.000 0.000 Not Reported Not Reported
05/15/2019 01:42 AM 47.48 40.46 31.28 62.96 45.50 52.0 Not Reported 2.46 SE 2.01 N 1.79 SE No 0.000 Error:Lookup 05/06/2019 04:03 PM 05/06/2019 04:18 PM 0.000 0.000 0.000 0.000 0.000 Not Reported Not Reported
05/15/2019 01:47 AM 48.56 40.46 29.66 62.96 45.50 47.0 Not Reported 1.79 SE 0.22 SE 1.79 SE No 0.000 Error:Lookup 05/06/2019 04:03 PM 05/06/2019 04:18 PM 0.000 0.000 0.000 0.000 0.000 Not Reported Not Reported
05/15/2019 01:52 AM 48.74 40.28 29.30 62.96 45.50 46.0 Not Reported 1.34 N 1.12 SW 3.36 SE No 0.000 Error:Lookup 05/06/2019 04:03 PM 05/06/2019 04:18 PM 0.000 0.000 0.000 0.000 0.000 Not Reported Not Reported
05/15/2019 01:57 AM 48.92 40.82 29.84 62.96 45.50 47.0 Not Reported 0.22 W 0.89 E 3.36 SE No 0.000 Error:Lookup 05/06/2019 04:03 PM 05/06/2019 04:18 PM 0.000 0.000 0.000 0.000 0.000 Not Reported Not Reported
05/15/2019 02:02 AM 48.74 40.64 29.84 62.96 45.50 47.0 Not Reported 1.12 N 0.89 NW 2.91 NE No 0.000 Error:Lookup 05/06/2019 04:03 PM 05/06/2019 04:18 PM 0.000 0.000 0.000 0.000 0.000 Not Reported Not Reported
05/15/2019 02:07 AM 49.10 40.64 29.66 62.96 45.50 46.0 Not Reported 0.89 SE 0.45 NE 2.91 NE No 0.000 Error:Lookup 05/06/2019 04:03 PM 05/06/2019 04:18 PM 0.000 0.000 0.000 0.000 0.000 Not Reported Not Reported
05/15/2019 02:12 AM 48.38 40.46 29.84 62.96 45.50 47.0 Not Reported 0.89 SE 0.22 SE 4.25 NW No 0.000 Error:Lookup 05/06/2019 04:03 PM 05/06/2019 04:18 PM 0.000 0.000 0.000 0.000 0.000 Not Reported Not Reported
05/15/2019 02:17 AM 48.20 40.64 30.74 62.96 45.50 50.0 Not Reported 1.57 E 2.46 E 4.25 NW No 0.000 Error:Lookup 05/06/2019 04:03 PM 05/06/2019 04:18 PM 0.000 0.000 0.000 0.000 0.000 Not Reported Not Reported
05/15/2019 02:22 AM 48.38 40.64 30.74 62.96 45.50 50.0 Not Reported 1.79 NE 1.79 E 3.13 E No 0.000 Error:Lookup 05/06/2019 04:03 PM 05/06/2019 04:18 PM 0.000 0.000 0.000 0.000 0.000 Not Reported Not Reported
05/15/2019 02:27 AM 47.66 40.28 30.92 62.96 45.50 51.0 Not Reported 1.34 E 1.34 SW 3.13 E No 0.000 Error:Lookup 05/06/2019 04:03 PM 05/06/2019 04:18 PM 0.000 0.000 0.000 0.000 0.000 Not Reported Not Reported
05/15/2019 02:32 AM 47.84 40.64 31.46 62.96 45.50 52.0 Not Reported 1.34 E 1.12 E 2.46 NE No 0.000 Error:Lookup 05/06/2019 04:03 PM 05/06/2019 04:18 PM 0.000 0.000 0.000 0.000 0.000 Not Reported Not Reported
05/15/2019 02:37 AM 48.02 40.82 31.28 62.96 45.50 51.0 Not Reported 1.57 SE 1.34 E 2.46 NE No 0.000 Error:Lookup 05/06/2019 04:03 PM 05/06/2019 04:18 PM 0.000 0.000 0.000 0.000 0.000 Not Reported Not Reported
05/15/2019 02:42 AM 47.66 40.10 30.20 62.96 45.50 50.0 Not Reported 1.12 NE 1.12 NE 3.36 SW No 0.000 Error:Lookup 05/06/2019 04:03 PM 05/06/2019 04:18 PM 0.000 0.000 0.000 0.000 0.000 Not Reported Not Reported
05/15/2019 02:47 AM 47.66 40.28 30.20 62.96 45.50 50.0 Not Reported 0.67 NE 0.00 NE 3.36 SW No 0.000 Error:Lookup 05/06/2019 04:03 PM 05/06/2019 04:18 PM 0.000 0.000 0.000 0.000 0.000 Not Reported Not Reported
05/15/2019 02:52 AM 47.48 40.46 31.64 62.96 45.50 53.0 Not Reported 1.12 E 1.12 E 1.79 E No 0.000 Error:Lookup 05/06/2019 04:03 PM 05/06/2019 04:18 PM 0.000 0.000 0.000 0.000 0.000 Not Reported Not Reported
05/15/2019 02:57 AM 46.76 40.46 32.36 62.96 45.50 57.0 Not Reported 0.45 E 0.89 E 1.79 E No 0.000 Error:Lookup 05/06/2019 04:03 PM 05/06/2019 04:18 PM 0.000 0.000 0.000 0.000 0.000 Not Reported Not Reported
05/15/2019 03:02 AM 46.40 40.10 31.64 62.96 45.50 55.0 Not Reported 1.57 E 1.57 E 1.57 E No 0.000 Error:Lookup 05/06/2019 04:03 PM 05/06/2019 04:18 PM 0.000 0.000 0.000 0.000 0.000 Not Reported Not Reported
05/15/2019 03:07 AM 46.76 39.92 31.28 62.96 45.68 54.0 Not Reported 2.01 NE 1.79 E 1.57 E No 0.000 Error:Lookup 05/06/2019 04:03 PM 05/06/2019 04:18 PM 0.000 0.000 0.000 0.000 0.000 Not Reported Not Reported
05/15/2019 03:12 AM 46.22 40.10 32.00 62.96 46.22 57.0 Not Reported 0.89 NE 0.22 NE 2.24 E No 0.000 Error:Lookup 05/06/2019 04:03 PM 05/06/2019 04:18 PM 0.000 0.000 0.000 0.000 0.000 Not Reported Not Reported
05/15/2019 03:17 AM 47.30 39.38 28.22 62.96 46.04 47.0 Not Reported 2.24 E 1.79 E 2.24 E No 0.000 Error:Lookup 05/06/2019 04:03 PM 05/06/2019 04:18 PM 0.000 0.000 0.000 0.000 0.000 Not Reported Not Reported
05/15/2019 03:22 AM 46.58 39.74 30.92 62.96 46.04 54.0 Not Reported 1.79 SE 2.01 SE 4.25 NE No 0.000 Error:Lookup 05/06/2019 04:03 PM 05/06/2019 04:18 PM 0.000 0.000 0.000 0.000 0.000 Not Reported Not Reported
05/15/2019 03:27 AM 46.58 39.20 29.12 62.96 46.04 49.0 Not Reported 1.12 E 1.57 N 4.25 NE No 0.000 Error:Lookup 05/06/2019 04:03 PM 05/06/2019 04:18 PM 0.000 0.000 0.000 0.000 0.000 Not Reported Not Reported
05/15/2019 03:32 AM 48.20 39.92 28.58 62.96 46.04 46.0 Not Reported 1.57 SE 2.46 E 2.46 E No 0.000 Error:Lookup 05/06/2019 04:03 PM 05/06/2019 04:18 PM 0.000 0.000 0.000 0.000 0.000 Not Reported Not Reported
05/15/2019 03:37 AM 47.30 39.02 27.50 62.96 46.04 45.0 Not Reported 0.00 SW 1.34 N 2.46 E No 0.000 Error:Lookup 05/06/2019 04:03 PM 05/06/2019 04:18 PM 0.000 0.000 0.000 0.000 0.000 Not Reported Not Reported
05/15/2019 03:42 AM 47.66 39.02 26.24 62.96 46.04 42.0 Not Reported 1.79 SW 1.34 SW 4.03 NW No 0.000 Error:Lookup 05/06/2019 04:03 PM 05/06/2019 04:18 PM 0.000 0.000 0.000 0.000 0.000 Not Reported Not Reported
05/15/2019 03:47 AM 48.20 39.02 25.52 62.96 46.04 40.0 Not Reported 3.36 E 2.68 E 4.03 NW No 0.000 Error:Lookup 05/06/2019 04:03 PM 05/06/2019 04:18 PM 0.000 0.000 0.000 0.000 0.000 Not Reported Not Reported
05/15/2019 03:52 AM 48.38 39.02 24.98 62.96 46.04 39.0 Not Reported 2.01 SW 1.34 SW 4.25 NE No 0.000 Error:Lookup 05/06/2019 04:03 PM 05/06/2019 04:18 PM 0.000 0.000 0.000 0.000 0.000 Not Reported Not Reported
05/15/2019 03:57 AM 48.56 39.56 26.42 62.96 46.04 41.0 Not Reported 2.24 E 0.89 NE 4.25 NE No 0.000 Error:Lookup 05/06/2019 04:03 PM 05/06/2019 04:18 PM 0.000 0.000 0.000 0.000 0.000 Not Reported Not Reported
05/15/2019 04:02 AM 47.12 39.02 27.68 62.96 46.04 46.0 Not Reported 2.46 E 1.79 NE 4.70 E No 0.000 Error:Lookup 05/06/2019 04:03 PM 05/06/2019 04:18 PM 0.000 0.000 0.000 0.000 0.000 Not Reported Not Reported
05/15/2019 04:07 AM 46.22 39.20 29.66 62.96 46.04 51.0 Not Reported 1.34 E 0.22 NE 4.70 E No 0.000 Error:Lookup 05/06/2019 04:03 PM 05/06/2019 04:18 PM 0.000 0.000 0.000 0.000 0.000 Not Reported Not Reported
05/15/2019 04:12 AM 46.40 38.84 28.04 62.96 46.04 48.0 Not Reported 0.22 E 0.89 NE 3.36 E No 0.000 Error:Lookup 05/06/2019 04:03 PM 05/06/2019 04:18 PM 0.000 0.000 0.000 0.000 0.000 Not Reported Not Reported
05/15/2019 04:17 AM 46.22 38.30 26.78 62.96 46.04 45.0 Not Reported 2.01 NE 1.79 SE 3.36 E No 0.000 Error:Lookup 05/06/2019 04:03 PM 05/06/2019 04:18 PM 0.000 0.000 0.000 0.000 0.000 Not Reported Not Reported
05/15/2019 04:22 AM 47.12 38.84 27.50 62.96 46.04 45.0 Not Reported 0.45 NE 0.67 NE 2.68 NE No 0.000 Error:Lookup 05/06/2019 04:03 PM 05/06/2019 04:18 PM 0.000 0.000 0.000 0.000 0.000 Not Reported Not Reported
05/15/2019 04:27 AM 46.94 38.84 27.32 62.96 46.04 45.0 Not Reported 0.89 E 0.89 SE 2.68 NE No 0.000 Error:Lookup 05/06/2019 04:03 PM 05/06/2019 04:18 PM 0.000 0.000 0.000 0.000 0.000 Not Reported Not Reported
05/15/2019 04:32 AM 46.76 39.02 28.04 62.96 46.04 47.0 Not Reported 0.22 NE 0.00 NE 1.34 E No 0.000 Error:Lookup 05/06/2019 04:03 PM 05/06/2019 04:18 PM 0.000 0.000 0.000 0.000 0.000 Not Reported Not Reported
05/15/2019 04:37 AM 46.76 39.02 28.22 62.96 46.04 47.0 Not Reported 0.45 NE 0.67 NE 1.34 E No 0.000 Error:Lookup 05/06/2019 04:03 PM 05/06/2019 04:18 PM 0.000 0.000 0.000 0.000 0.000 Not Reported Not Reported
05/15/2019 04:42 AM 46.58 38.48 26.96 62.96 46.04 45.0 Not Reported 0.00 SW 0.00 NW 0.67 NE No 0.000 Error:Lookup 05/06/2019 04:03 PM 05/06/2019 04:18 PM 0.000 0.000 0.000 0.000 0.000 Not Reported Not Reported
05/15/2019 04:47 AM 47.30 38.84 26.42 62.96 46.04 43.0 Not Reported 1.12 E 0.67 S 0.67 NE No 0.000 Error:Lookup 05/06/2019 04:03 PM 05/06/2019 04:18 PM 0.000 0.000 0.000 0.000 0.000 Not Reported Not Reported
05/15/2019 04:52 AM 46.22 39.20 29.66 62.96 46.04 51.0 Not Reported 0.67 NE 1.57 E 2.24 E No 0.000 Error:Lookup 05/06/2019 04:03 PM 05/06/2019 04:18 PM 0.000 0.000 0.000 0.000 0.000 Not Reported Not Reported
05/15/2019 04:57 AM 45.68 38.48 28.22 62.96 45.68 49.0 Not Reported 1.12 NE 0.67 W 2.24 E No 0.000 Error:Lookup 05/06/2019 04:03 PM 05/06/2019 04:18 PM 0.000 0.000 0.000 0.000 0.000 Not Reported Not Reported
05/15/2019 05:02 AM 45.68 38.48 28.40 62.96 45.68 49.0 Not Reported 0.22 NE 0.00 N 2.68 SE No 0.000 Error:Lookup 05/06/2019 04:03 PM 05/06/2019 04:18 PM 0.000 0.000 0.000 0.000 0.000 Not Reported Not Reported
05/15/2019 05:07 AM 46.40 39.02 28.76 62.96 45.68 49.0 Not Reported 0.45 SW 0.00 N 2.68 SE No 0.000 Error:Lookup 05/06/2019 04:03 PM 05/06/2019 04:18 PM 0.000 0.000 0.000 0.000 0.000 Not Reported Not Reported
05/15/2019 05:12 AM 46.58 38.66 27.14 62.96 45.68 45.0 Not Reported 0.67 SW 0.00 E 1.12 SW No 0.000 Error:Lookup 05/06/2019 04:03 PM 05/06/2019 04:18 PM 0.000 0.000 0.000 0.000 0.000 Not Reported Not Reported
05/15/2019 05:17 AM 45.50 38.30 28.04 62.96 45.50 49.0 Not Reported 0.22 NE 0.00 NE 1.12 SW No 0.000 Error:Lookup 05/06/2019 04:03 PM 05/06/2019 04:18 PM 0.000 0.000 0.000 0.000 0.000 Not Reported Not Reported
05/15/2019 05:22 AM 45.32 38.12 28.04 62.96 45.32 49.0 Not Reported 0.22 N 0.22 N 1.34 NE No 0.000 Error:Lookup 05/06/2019 04:03 PM 05/06/2019 04:18 PM 0.000 0.000 0.000 0.000 0.000 Not Reported Not Reported
05/15/2019 05:27 AM 45.50 38.66 28.94 62.96 45.32 51.0 Not Reported 0.00 NE 0.67 NE 1.34 NE No 0.000 Error:Lookup 05/06/2019 04:03 PM 05/06/2019 04:18 PM 0.000 0.000 0.000 0.000 0.000 Not Reported Not Reported
05/15/2019 05:32 AM 45.32 38.30 28.58 62.96 45.14 51.0 Not Reported 0.45 E 0.00 E 1.79 E No 0.000 Error:Lookup 05/06/2019 04:03 PM 05/06/2019 04:18 PM 0.000 0.000 0.000 0.000 0.000 Not Reported Not Reported
05/15/2019 05:37 AM 46.58 38.48 26.78 62.96 45.14 45.0 Not Reported 1.12 S 1.34 S 1.79 E No 0.000 Error:Lookup 05/06/2019 04:03 PM 05/06/2019 04:18 PM 0.000 0.000 0.000 0.000 0.000 Not Reported Not Reported
05/15/2019 05:42 AM 46.94 38.84 27.14 62.96 45.14 45.0 Not Reported 0.67 N 0.00 N 2.68 E No 0.000 Error:Lookup 05/06/2019 04:03 PM 05/06/2019 04:18 PM 0.000 0.000 0.000 0.000 0.000 Not Reported Not Reported
05/15/2019 05:47 AM 47.30 38.84 26.96 62.96 45.14 44.0 Not Reported 0.89 NE 1.12 NE 2.68 E No 0.000 Error:Lookup 05/06/2019 04:03 PM 05/06/2019 04:18 PM 0.000 0.000 0.000 0.000 0.000 Not Reported Not Reported
05/15/2019 05:52 AM 47.30 39.02 27.14 62.96 45.14 44.0 Not Reported 0.22 E 0.45 SE 1.57 SE No 0.000 Error:Lookup 05/06/2019 04:03 PM 05/06/2019 04:18 PM 0.000 0.000 0.000 0.000 0.000 Not Reported Not Reported
05/15/2019 05:57 AM 46.94 39.02 27.50 62.96 45.14 46.0 Not Reported 0.45 NE 0.45 SW 1.57 SE No 0.000 Error:Lookup 05/06/2019 04:03 PM 05/06/2019 04:18 PM 0.000 0.000 0.000 0.000 0.000 Not Reported Not Reported
05/15/2019 06:02 AM 46.76 38.84 27.68 62.96 45.14 46.0 Not Reported 0.00 NW 0.00 N 0.89 NE No 0.000 Error:Lookup 05/06/2019 04:03 PM 05/06/2019 04:18 PM 0.000 0.000 0.000 0.000 0.000 Not Reported Not Reported
05/15/2019 06:07 AM 46.58 38.84 28.04 62.96 45.14 47.0 Not Reported 0.45 W 0.00 W 0.89 NE No 0.000 Error:Lookup 05/06/2019 04:03 PM 05/06/2019 04:18 PM 0.000 0.000 0.000 0.000 0.000 Not Reported Not Reported
05/15/2019 06:12 AM 46.22 38.66 27.86 62.96 45.14 48.0 Not Reported 0.22 W 0.45 W 1.12 W No 0.000 Error:Lookup 05/06/2019 04:03 PM 05/06/2019 04:18 PM 0.000 0.000 0.000 0.000 0.000 Not Reported Not Reported
05/15/2019 06:17 AM 45.86 38.30 27.68 62.96 45.14 48.0 Not Reported 0.67 NE 0.22 NW 1.12 W No 0.000 Error:Lookup 05/06/2019 04:03 PM 05/06/2019 04:18 PM 0.000 0.000 0.000 0.000 0.000 Not Reported Not Reported
05/15/2019 06:22 AM 46.22 38.66 27.86 62.96 45.14 47.0 Not Reported 0.67 SW 0.89 W 2.68 NW No 0.000 Error:Lookup 05/06/2019 04:03 PM 05/06/2019 04:18 PM 0.000 0.000 0.000 0.000 0.000 Not Reported Not Reported
05/15/2019 06:27 AM 45.86 38.48 28.40 62.96 45.14 49.0 Not Reported 1.34 NE 1.12 SW 2.68 NW No 0.000 Error:Lookup 05/06/2019 04:03 PM 05/06/2019 04:18 PM 0.000 0.000 0.000 0.000 0.000 Not Reported Not Reported
05/15/2019 06:32 AM 46.94 39.38 29.12 62.96 45.14 49.0 Not Reported 2.91 E 2.68 N 3.58 SE No 0.000 Error:Lookup 05/06/2019 04:03 PM 05/06/2019 04:18 PM 0.000 0.000 0.000 0.000 0.000 Not Reported Not Reported
05/15/2019 06:37 AM 46.94 39.56 29.84 62.96 45.14 50.0 Not Reported 0.89 SW 3.13 E 3.58 SE No 0.000 Error:Lookup 05/06/2019 04:03 PM 05/06/2019 04:18 PM 0.000 0.000 0.000 0.000 0.000 Not Reported Not Reported
05/15/2019 06:42 AM 46.76 39.38 29.48 62.96 45.14 50.0 Not Reported 0.67 SW 0.67 SW 4.25 NW No 0.000 Error:Lookup 05/06/2019 04:03 PM 05/06/2019 04:18 PM 0.000 0.000 0.000 0.000 0.000 Not Reported Not Reported
05/15/2019 06:47 AM 46.58 39.20 29.30 62.96 45.14 50.0 Not Reported 2.24 W 1.57 NW 4.25 NW No 0.000 Error:Lookup 05/06/2019 04:03 PM 05/06/2019 04:18 PM 0.000 0.000 0.000 0.000 0.000 Not Reported Not Reported
05/15/2019 06:52 AM 46.40 39.38 29.66 62.96 45.14 51.0 Not Reported 0.22 W 0.45 W 4.47 W No 0.000 Error:Lookup 05/06/2019 04:03 PM 05/06/2019 04:18 PM 0.000 0.000 0.000 0.000 0.000 Not Reported Not Reported
05/15/2019 06:57 AM 46.04 39.02 29.48 62.96 45.14 51.0 Not Reported 1.57 W 1.34 SW 4.47 W No 0.000 Error:Lookup 05/06/2019 04:03 PM 05/06/2019 04:18 PM 0.000 0.000 0.000 0.000 0.000 Not Reported Not Reported
05/15/2019 07:02 AM 46.22 39.20 29.66 62.96 45.14 51.0 Not Reported 1.79 W 0.22 NW 2.68 SE No 0.000 Error:Lookup 05/06/2019 04:03 PM 05/06/2019 04:18 PM 0.000 0.000 0.000 0.000 0.000 Not Reported Not Reported
05/15/2019 07:07 AM 46.40 39.56 30.38 62.96 45.14 52.0 Not Reported 1.12 W 2.01 W 2.68 SE No 0.000 Error:Lookup 05/06/2019 04:03 PM 05/06/2019 04:18 PM 0.000 0.000 0.000 0.000 0.000 Not Reported Not Reported
05/15/2019 07:12 AM 46.04 39.38 30.56 62.96 45.14 54.0 Not Reported 0.89 NW 0.67 W 4.25 NW No 0.000 Error:Lookup 05/06/2019 04:03 PM 05/06/2019 04:18 PM 0.000 0.000 0.000 0.000 0.000 Not Reported Not Reported
05/15/2019 07:17 AM 46.22 39.38 30.38 62.96 45.14 53.0 Not Reported 2.01 W 1.57 W 4.25 NW No 0.000 Error:Lookup 05/06/2019 04:03 PM 05/06/2019 04:18 PM 0.000 0.000 0.000 0.000 0.000 Not Reported Not Reported
05/15/2019 07:22 AM 46.58 39.74 30.92 62.96 45.14 53.0 Not Reported 2.68 SW 1.79 W 4.47 SW No 0.000 Error:Lookup 05/06/2019 04:03 PM 05/06/2019 04:18 PM 0.000 0.000 0.000 0.000 0.000 Not Reported Not Reported
05/15/2019 07:27 AM 46.22 39.92 31.64 62.96 45.14 55.0 Not Reported 1.79 NE 1.12 NE 4.47 SW No 0.000 Error:Lookup 05/06/2019 04:03 PM 05/06/2019 04:18 PM 0.000 0.000 0.000 0.000 0.000 Not Reported Not Reported
05/15/2019 07:32 AM 45.86 40.10 32.54 62.96 45.14 59.0 Not Reported 4.03 NW 2.01 W 6.71 E No 0.000 Error:Lookup 05/06/2019 04:03 PM 05/06/2019 04:18 PM 0.000 0.000 0.000 0.000 0.000 Not Reported Not Reported
05/15/2019 07:37 AM 45.86 40.10 32.54 62.96 45.14 59.0 Not Reported 0.89 N 3.13 SE 6.71 E No 0.000 Error:Lookup 05/06/2019 04:03 PM 05/06/2019 04:18 PM 0.000 0.000 0.000 0.000 0.000 Not Reported Not Reported
05/15/2019 07:42 AM 45.68 40.10 33.26 62.96 45.14 61.0 Not Reported 3.36 SW 4.47 SW 7.38 NW No 0.000 Error:Lookup 05/06/2019 04:03 PM 05/06/2019 04:18 PM 0.000 0.000 0.000 0.000 0.000 Not Reported Not Reported
05/15/2019 07:47 AM 45.50 40.10 33.26 62.96 45.14 61.0 Not Reported 1.57 S 0.89 NW 7.38 NW No 0.000 Error:Lookup 05/06/2019 04:03 PM 05/06/2019 04:18 PM 0.000 0.000 0.000 0.000 0.000 Not Reported Not Reported
05/15/2019 07:52 AM 45.50 40.10 33.26 62.96 45.14 62.0 Not Reported 2.46 S 1.57 E 5.37 W No 0.000 Error:Lookup 05/06/2019 04:03 PM 05/06/2019 04:18 PM 0.000 0.000 0.000 0.000 0.000 Not Reported Not Reported
05/15/2019 07:57 AM 45.50 40.10 33.26 62.96 45.14 62.0 Not Reported 3.80 W 0.00 E 5.37 W No 0.000 Error:Lookup 05/06/2019 04:03 PM 05/06/2019 04:18 PM 0.000 0.000 0.000 0.000 0.000 Not Reported Not Reported
05/15/2019 08:02 AM 45.50 40.28 33.80 62.96 45.14 63.0 Not Reported 0.89 W 1.79 NW 5.82 NW No 0.000 Error:Lookup 05/06/2019 04:03 PM 05/06/2019 04:18 PM 0.000 0.000 0.000 0.000 0.000 Not Reported Not Reported
05/15/2019 08:07 AM 45.50 40.46 34.16 62.96 45.14 64.0 Not Reported 0.89 N 0.00 SW 5.82 NW No 0.000 Error:Lookup 05/06/2019 04:03 PM 05/06/2019 04:18 PM 0.000 0.000 0.000 0.000 0.000 Not Reported Not Reported
05/15/2019 08:12 AM 45.32 40.64 34.88 62.96 45.14 66.0 Not Reported 2.68 W 4.47 SW 2.68 SW No 0.000 Error:Lookup 05/06/2019 04:03 PM 05/06/2019 04:18 PM 0.000 0.000 0.000 0.000 0.000 Not Reported Not Reported
05/15/2019 08:17 AM 44.60 41.00 36.86 62.96 44.60 74.0 Not Reported 1.34 W 3.13 SW 2.68 SW No 0.000 Error:Lookup 05/06/2019 04:03 PM 05/06/2019 04:18 PM 0.000 0.000 0.000 0.000 0.000 Not Reported Not Reported
05/15/2019 08:22 AM 43.70 40.82 37.40 62.96 43.70 78.0 Not Reported 3.36 W 3.13 SW 4.47 SW No 0.000 Error:Lookup 05/06/2019 04:03 PM 05/06/2019 04:18 PM 0.000 0.000 0.000 0.000 0.000 Not Reported Not Reported
05/15/2019 08:27 AM 42.98 40.28 37.22 62.96 42.98 79.0 Not Reported 4.70 W 3.58 NW 4.47 SW No 0.000 Error:Lookup 05/06/2019 04:03 PM 05/06/2019 04:18 PM 0.000 0.000 0.000 0.000 0.000 Not Reported Not Reported
05/15/2019 08:32 AM 42.98 40.46 37.40 62.96 42.80 80.0 Not Reported 4.25 SW 4.47 W 8.05 SW No 0.000 Error:Lookup 05/06/2019 04:03 PM 05/06/2019 04:18 PM 0.000 0.000 0.000 0.000 0.000 Not Reported Not Reported
05/15/2019 08:37 AM 42.26 39.92 37.04 62.96 42.26 81.0 Not Reported 3.58 SW 6.71 SW 8.05 SW No 0.000 Error:Lookup 05/06/2019 04:03 PM 05/06/2019 04:18 PM 0.000 0.000 0.000 0.000 0.000 Not Reported Not Reported
05/15/2019 08:42 AM 42.08 40.10 37.94 62.96 42.08 85.0 Not Reported 2.46 W 0.89 W 6.71 SW No 0.000 Error:Lookup 05/06/2019 04:03 PM 05/06/2019 04:18 PM 0.000 0.000 0.000 0.000 0.000 Not Reported Not Reported
05/15/2019 08:48 AM 41.72 40.28 37.94 62.96 41.72 88.0 Not Reported 2.46 W 2.91 W 6.71 SW No 0.000 Error:Lookup 05/06/2019 04:03 PM 05/06/2019 04:18 PM 0.000 0.000 0.000 0.000 0.000 Not Reported Not Reported
05/15/2019 08:52 AM 41.54 39.92 37.94 62.96 41.54 87.0 Not Reported 3.58 SW 2.24 SE 5.59 SW Yes 0.043 Error:Lookup 05/15/2019 12:51 AM   0.004 0.004 0.004 0.004 0.004 Not Reported Not Reported
05/15/2019 08:58 AM 41.36 39.92 38.30 62.96 41.36 88.0 Not Reported 2.91 W 3.13 W 5.59 SW No 0.000 Error:Lookup 05/15/2019 12:51 AM 05/15/2019 12:56 AM 0.004 0.004 0.004 0.004 0.004 Not Reported Not Reported
05/15/2019 09:02 AM 41.18 39.92 38.30 62.96 41.00 89.0 Not Reported 3.36 W 3.36 SW 5.82 W No 0.000 Error:Lookup 05/15/2019 12:51 AM 05/15/2019 12:56 AM 0.004 0.004 0.004 0.004 0.004 Not Reported Not Reported
05/15/2019 09:07 AM 40.82 39.56 37.94 62.96 40.82 89.0 Not Reported 4.03 W 6.93 W 5.82 W Yes 0.043 Error:Lookup 05/15/2019 01:03 AM   0.008 0.008 0.008 0.008 0.008 Not Reported Not Reported
05/15/2019 09:12 AM 40.64 39.56 38.48 62.96 40.64 91.0 Not Reported 4.03 W 2.24 W 6.93 W Yes 0.043 Error:Lookup 05/15/2019 01:11 AM   0.008 0.008 0.008 0.008 0.008 Not Reported Not Reported
05/15/2019 09:17 AM 40.46 39.56 38.48 62.96 40.46 92.0 Not Reported 2.46 W 4.70 SW 6.93 W No 0.000 Error:Lookup 05/15/2019 01:11 AM 05/15/2019 01:16 AM 0.008 0.008 0.008 0.008 0.008 Not Reported Not Reported
05/15/2019 09:22 AM 40.64 39.74 38.84 62.96 40.46 93.0 Not Reported 0.67 W 0.67 SW 6.93 W No 0.000 Error:Lookup 05/15/2019 01:11 AM 05/15/2019 01:16 AM 0.008 0.008 0.008 0.008 0.008 Not Reported Not Reported
05/15/2019 09:27 AM 40.64 39.74 38.48 62.96 40.46 91.0 Not Reported 0.89 W 0.22 S 6.93 W No 0.000 Error:Lookup 05/15/2019 01:11 AM 05/15/2019 01:16 AM 0.008 0.008 0.008 0.008 0.008 Not Reported Not Reported
05/15/2019 09:32 AM 40.82 39.74 38.66 62.96 40.46 91.0 Not Reported 2.01 NE 2.46 NE 2.24 NW No 0.000 Error:Lookup 05/15/2019 01:11 AM 05/15/2019 01:16 AM 0.008 0.008 0.008 0.008 0.008 Not Reported Not Reported
05/15/2019 09:37 AM 41.54 40.46 39.38 62.96 40.46 91.0 Not Reported 0.67 E 2.91 SE 2.24 NW No 0.000 Error:Lookup 05/15/2019 01:11 AM 05/15/2019 01:16 AM 0.008 0.008 0.008 0.008 0.008 Not Reported Not Reported
05/15/2019 09:42 AM 41.90 40.82 39.56 62.96 40.46 91.0 Not Reported 1.57 SE 0.89 S 2.91 SE No 0.000 Error:Lookup 05/15/2019 01:11 AM 05/15/2019 01:16 AM 0.008 0.008 0.008 0.008 0.008 Not Reported Not Reported
05/15/2019 09:47 AM 41.90 40.64 39.20 62.96 40.46 90.0 Not Reported 0.45 E 0.45 N 2.91 SE Yes 0.043 Error:Lookup 05/15/2019 01:44 AM   0.016 0.016 0.016 0.016 0.016 Not Reported Not Reported
05/15/2019 09:52 AM 41.54 40.10 38.66 62.96 40.46 89.0 Not Reported 0.45 N 0.89 N 1.79 SE Yes 0.085 Error:Lookup 05/15/2019 01:44 AM   0.020 0.020 0.020 0.020 0.020 Not Reported Not Reported
05/15/2019 09:57 AM 42.44 41.36 40.10 62.96 40.46 91.0 Not Reported 0.00 SW 0.00 NW 1.79 SE No 0.000 Error:Lookup 05/15/2019 01:44 AM 05/15/2019 01:55 AM 0.020 0.020 0.020 0.020 0.020 Not Reported Not Reported
05/15/2019 10:02 AM 42.26 40.64 38.66 62.96 40.46 86.0 Not Reported 0.22 W 0.00 SW 1.79 N Yes 0.043 Error:Lookup 05/15/2019 01:59 AM   0.020 0.028 0.028 0.028 0.028 Not Reported Not Reported
05/15/2019 10:08 AM 42.44 41.54 40.10 62.96 40.46 92.0 Not Reported 0.67 W 0.89 W 1.79 N No 0.000 Error:Lookup 05/15/2019 01:59 AM 05/15/2019 02:04 AM 0.020 0.028 0.028 0.028 0.028 Not Reported Not Reported
05/15/2019 10:12 AM 42.08 41.36 40.46 62.96 40.46 93.0 Not Reported 2.01 W 0.89 SW 2.01 W No 0.000 Error:Lookup 05/15/2019 01:59 AM 05/15/2019 02:04 AM 0.016 0.028 0.028 0.028 0.028 Not Reported Not Reported
05/15/2019 10:17 AM 41.90 41.00 40.28 62.96 40.46 93.0 Not Reported 2.01 SW 2.91 SW 2.01 W No 0.000 Error:Lookup 05/15/2019 01:59 AM 05/15/2019 02:04 AM 0.016 0.028 0.028 0.028 0.028 Not Reported Not Reported
05/15/2019 10:27 AM 41.72 41.00 40.28 62.96 40.46 95.0 Not Reported 1.34 W 1.57 SW 2.91 SW No 0.000 Error:Lookup 05/15/2019 01:59 AM 05/15/2019 02:04 AM 0.016 0.028 0.028 0.028 0.028 Not Reported Not Reported
05/15/2019 10:32 AM 41.54 41.00 40.28 62.96 40.46 95.0 Not Reported 1.79 W 1.34 NW 2.01 W Yes 0.043 Error:Lookup 05/15/2019 02:31 AM   0.020 0.031 0.031 0.031 0.031 Not Reported Not Reported
05/15/2019 10:37 AM 41.18 40.64 40.10 62.96 40.46 95.0 Not Reported 1.57 SW 3.13 SW 2.01 W No 0.000 Error:Lookup 05/15/2019 02:31 AM 05/15/2019 02:36 AM 0.020 0.031 0.031 0.031 0.031 Not Reported Not Reported
05/15/2019 10:42 AM 41.18 40.64 40.10 62.96 40.46 95.0 Not Reported 3.58 SW 3.36 SW 3.58 W Yes 0.043 Error:Lookup 05/15/2019 02:39 AM   0.020 0.035 0.035 0.035 0.035 Not Reported Not Reported
05/15/2019 10:47 AM 41.18 40.10 39.56 62.96 40.46 92.0 Not Reported 2.91 W 4.70 W 3.58 W Yes 0.043 Error:Lookup 05/15/2019 02:45 AM   0.020 0.039 0.039 0.039 0.039 Not Reported Not Reported
05/15/2019 10:52 AM 41.36 40.64 39.74 62.96 40.46 94.0 Not Reported 1.57 W 3.36 W 5.37 SW No 0.000 Error:Lookup 05/15/2019 02:45 AM 05/15/2019 02:50 AM 0.016 0.039 0.039 0.039 0.039 Not Reported Not Reported
05/15/2019 10:57 AM 41.18 40.46 39.56 62.96 40.46 94.0 Not Reported 2.46 W 2.24 W 5.37 SW Yes 0.043 Error:Lookup 05/15/2019 02:56 AM   0.020 0.039 0.039 0.039 0.039 Not Reported Not Reported
05/15/2019 11:02 AM 41.00 40.10 38.84 62.96 40.46 92.0 Not Reported 4.03 SW 3.58 W 4.70 W No 0.000 Error:Lookup 05/15/2019 02:56 AM 05/15/2019 03:01 AM 0.016 0.039 0.039 0.039 0.039 Not Reported Not Reported
05/15/2019 11:08 AM 41.18 40.10 39.56 62.96 40.46 93.0 Not Reported 3.13 W 2.01 W 4.70 W Yes 0.043 Error:Lookup 05/15/2019 03:06 AM   0.020 0.043 0.043 0.043 0.043 Not Reported Not Reported
05/15/2019 11:12 AM 41.00 40.10 39.20 62.96 40.46 93.0 Not Reported 3.80 W 4.70 NW 5.37 W No 0.000 Error:Lookup 05/15/2019 03:06 AM 05/15/2019 03:11 AM 0.020 0.043 0.043 0.043 0.043 Not Reported Not Reported
05/15/2019 11:17 AM 40.82 39.92 38.84 62.96 40.46 92.0 Not Reported 2.01 W 1.57 S 5.37 W Yes 0.043 Error:Lookup 05/15/2019 03:14 AM   0.020 0.051 0.051 0.051 0.051 Not Reported Not Reported
05/15/2019 11:22 AM 41.00 40.10 39.02 62.96 40.46 91.0 Not Reported 1.79 W 1.57 NW 4.92 SW No 0.000 Error:Lookup 05/15/2019 03:14 AM 05/15/2019 03:19 AM 0.020 0.051 0.051 0.051 0.051 Not Reported Not Reported
05/15/2019 11:27 AM 41.54 40.10 38.66 62.96 40.46 89.0 Not Reported 3.13 W 1.12 SW 4.92 SW Yes 0.043 Error:Lookup 05/15/2019 03:23 AM   0.028 0.055 0.055 0.055 0.055 Not Reported Not Reported
05/15/2019 11:32 AM 41.90 40.46 39.02 62.96 40.46 89.0 Not Reported 1.79 SW 1.57 W 5.14 W Yes 0.043 Error:Lookup 05/15/2019 03:30 AM   0.028 0.059 0.059 0.059 0.059 Not Reported Not Reported
05/15/2019 11:37 AM 41.90 40.46 39.38 62.96 40.46 91.0 Not Reported 1.12 SW 1.12 NW 5.14 W Yes 0.043 Error:Lookup 05/15/2019 03:30 AM   0.031 0.063 0.063 0.063 0.063 Not Reported Not Reported
05/15/2019 11:42 AM 42.08 40.82 39.20 62.96 40.46 90.0 Not Reported 2.68 NW 2.91 W 3.36 SW No 0.000 Error:Lookup 05/15/2019 03:30 AM 05/15/2019 03:38 AM 0.028 0.063 0.063 0.063 0.063 Not Reported Not Reported
05/15/2019 11:47 AM 41.72 40.46 39.02 62.96 40.46 89.0 Not Reported 2.46 SW 6.49 SW 3.36 SW Yes 0.043 Error:Lookup 05/15/2019 03:44 AM   0.028 0.067 0.067 0.067 0.067 Not Reported Not Reported
05/15/2019 11:53 AM 42.26 41.18 39.92 62.96 40.46 90.0 Not Reported 3.36 W 4.92 W 6.49 SW Yes 0.043 Error:Lookup 05/15/2019 03:52 AM   0.031 0.067 0.071 0.071 0.071 Not Reported Not Reported
05/15/2019 11:57 AM 41.72 40.64 39.56 62.96 40.46 91.0 Not Reported 3.36 W 4.47 SW 6.49 SW No 0.000 Error:Lookup 05/15/2019 03:52 AM 05/15/2019 03:57 AM 0.028 0.067 0.071 0.071 0.071 Not Reported Not Reported
05/15/2019 12:02 PM 42.44 41.18 39.74 62.96 40.46 90.0 Not Reported 0.89 NW 1.57 N 5.82 SW No 0.000 Error:Lookup 05/15/2019 03:52 AM 05/15/2019 03:57 AM 0.028 0.067 0.071 0.071 0.071 Not Reported Not Reported
05/15/2019 12:07 PM 42.44 41.00 39.20 62.96 40.46 88.0 Not Reported 2.68 W 2.68 SW 5.82 SW Yes 0.043 Error:Lookup 05/15/2019 04:07 AM   0.028 0.067 0.075 0.075 0.075 Not Reported Not Reported
05/15/2019 12:12 PM 42.80 41.54 39.92 62.96 40.46 89.0 Not Reported 3.13 E 3.80 SE 6.93 E Yes 0.043 Error:Lookup 05/15/2019 04:07 AM   0.028 0.063 0.075 0.075 0.075 Not Reported Not Reported
05/15/2019 12:18 PM 42.98 41.00 37.76 62.96 40.46 82.0 Not Reported 3.58 SW 1.79 SE 6.93 E No 0.000 Error:Lookup 05/15/2019 04:07 AM 05/15/2019 04:12 AM 0.020 0.063 0.075 0.075 0.075 Not Reported Not Reported
05/15/2019 12:22 PM 42.98 41.00 38.66 62.96 40.46 84.0 Not Reported 2.46 SW 2.68 SW 7.38 SW No 0.000 Error:Lookup 05/15/2019 04:07 AM 05/15/2019 04:12 AM 0.020 0.063 0.075 0.075 0.075 Not Reported Not Reported
05/15/2019 12:27 PM 42.80 40.64 39.38 62.96 40.46 83.0 Not Reported 3.58 SW 5.59 SW 7.38 SW No 0.000 Error:Lookup 05/15/2019 04:07 AM 05/15/2019 04:12 AM 0.020 0.063 0.075 0.075 0.075 Not Reported Not Reported
05/15/2019 12:32 PM 42.80 41.00 38.66 62.96 40.46 84.0 Not Reported 3.13 W 3.80 S 6.04 SW No 0.000 Error:Lookup 05/15/2019 04:07 AM 05/15/2019 04:12 AM 0.016 0.063 0.075 0.075 0.075 Not Reported Not Reported
05/15/2019 12:37 PM 42.98 40.82 38.30 62.96 40.46 83.0 Not Reported 2.91 S 2.24 SW 6.04 SW No 0.000 Error:Lookup 05/15/2019 04:07 AM 05/15/2019 04:12 AM 0.008 0.063 0.075 0.075 0.075 Not Reported Not Reported
05/15/2019 12:42 PM 43.16 41.36 39.20 62.96 40.46 85.0 Not Reported 2.24 W 2.24 S 4.47 SE Yes 0.043 Error:Lookup 05/15/2019 04:38 AM   0.016 0.067 0.079 0.079 0.079 Not Reported Not Reported
05/15/2019 12:47 PM 43.70 41.90 40.10 62.96 40.46 87.0 Not Reported 1.79 SW 2.91 E 4.47 SE Yes 0.043 Error:Lookup 05/15/2019 04:47 AM   0.016 0.067 0.083 0.083 0.083 Not Reported Not Reported
05/15/2019 12:52 PM 43.52 41.72 39.74 62.96 40.46 86.0 Not Reported 2.91 SW 1.34 SW 6.49 S No 0.000 Error:Lookup 05/15/2019 04:47 AM 05/15/2019 04:52 AM 0.008 0.059 0.083 0.083 0.083 Not Reported Not Reported
05/15/2019 12:57 PM 42.80 41.72 40.46 62.96 40.46 91.0 Not Reported 3.13 SW 3.36 SW 6.49 S No 0.000 Error:Lookup 05/15/2019 04:47 AM 05/15/2019 04:52 AM 0.008 0.059 0.083 0.083 0.083 Not Reported Not Reported
05/15/2019 01:02 PM 41.90 40.64 39.20 62.96 40.46 90.0 Not Reported 4.47 W 4.70 N 9.84 SW Yes 0.043 Error:Lookup 05/15/2019 05:00 AM   0.016 0.059 0.083 0.083 0.083 Not Reported Not Reported
05/15/2019 01:07 PM 41.72 40.46 39.02 62.96 40.46 90.0 Not Reported 4.25 SW 4.47 SW 9.84 SW No 0.000 Error:Lookup 05/15/2019 05:00 AM 05/15/2019 05:05 AM 0.008 0.059 0.083 0.083 0.083 Not Reported Not Reported
05/15/2019 01:12 PM 41.72 40.64 39.38 62.96 40.46 91.0 Not Reported 3.80 W 2.68 SW 7.16 NW Yes 0.043 Error:Lookup 05/15/2019 05:09 AM   0.016 0.063 0.091 0.091 0.091 Not Reported Not Reported
05/15/2019 01:17 PM 41.36 40.46 39.38 62.96 40.46 92.0 Not Reported 4.92 SW 6.49 W 7.16 NW No 0.000 Error:Lookup 05/15/2019 05:09 AM 05/15/2019 05:14 AM 0.016 0.063 0.091 0.091 0.091 Not Reported Not Reported
05/15/2019 01:22 PM 41.00 40.10 39.02 62.96 40.46 92.0 Not Reported 5.14 W 3.80 W 6.49 W No 0.000 Error:Lookup 05/15/2019 05:09 AM 05/15/2019 05:14 AM 0.016 0.063 0.091 0.091 0.091 Not Reported Not Reported
05/15/2019 01:27 PM 40.82 39.92 39.02 62.96 40.46 92.0 Not Reported 5.37 SW 4.47 W 6.49 W No 0.000 Error:Lookup 05/15/2019 05:09 AM 05/15/2019 05:14 AM 0.016 0.063 0.091 0.091 0.091 Not Reported Not Reported
05/15/2019 01:32 PM 40.82 39.92 38.84 62.96 40.46 92.0 Not Reported 3.58 SW 2.01 SW 7.38 W Yes 0.043 Error:Lookup 05/15/2019 05:28 AM   0.020 0.063 0.091 0.091 0.091 Not Reported Not Reported
05/15/2019 01:37 PM 40.82 39.92 38.84 62.96 40.46 92.0 Not Reported 4.25 W 7.61 S 7.38 W Yes 0.043 Error:Lookup 05/15/2019 05:37 AM   0.020 0.067 0.098 0.098 0.098 Not Reported Not Reported
05/15/2019 01:42 PM 40.82 39.92 39.20 62.96 40.46 94.0 Not Reported 3.13 SW 3.36 W 7.83 W No 0.000 Error:Lookup 05/15/2019 05:37 AM 05/15/2019 05:42 AM 0.020 0.063 0.098 0.098 0.098 Not Reported Not Reported
05/15/2019 01:48 PM 40.28 39.38 38.12 62.96 40.28 92.0 Not Reported 5.82 W 6.49 W 7.83 W No 0.000 Error:Lookup 05/15/2019 05:37 AM 05/15/2019 05:42 AM 0.016 0.059 0.098 0.098 0.098 Not Reported Not Reported
05/15/2019 01:52 PM 40.46 39.74 39.20 62.96 40.28 94.0 Not Reported 3.13 SW 2.91 W 8.72 NW No 0.000 Error:Lookup 05/15/2019 05:37 AM 05/15/2019 05:42 AM 0.016 0.059 0.098 0.098 0.098 Not Reported Not Reported
05/15/2019 01:57 PM 40.64 39.92 39.02 62.96 40.28 93.0 Not Reported 2.46 SW 2.68 SW 8.72 NW No 0.000 Error:Lookup 05/15/2019 05:37 AM 05/15/2019 05:42 AM 0.016 0.055 0.098 0.098 0.098 Not Reported Not Reported
05/15/2019 02:02 PM 40.46 39.92 39.20 62.96 40.28 95.0 Not Reported 2.24 NW 2.68 W 4.47 W Yes 0.043 Error:Lookup 05/15/2019 05:59 AM   0.016 0.059 0.102 0.102 0.102 Not Reported Not Reported
05/15/2019 02:07 PM 40.64 39.92 39.20 62.96 40.28 94.0 Not Reported 3.80 SW 2.24 W 4.47 W No 0.000 Error:Lookup 05/15/2019 05:59 AM 05/15/2019 06:04 AM 0.016 0.055 0.102 0.102 0.102 Not Reported Not Reported
05/15/2019 02:12 PM 40.82 40.10 39.56 62.96 40.28 95.0 Not Reported 4.03 W 3.80 NW 5.82 S Yes 0.043 Error:Lookup 05/15/2019 06:10 AM   0.016 0.059 0.102 0.102 0.102 Not Reported Not Reported
05/15/2019 02:17 PM 40.64 40.10 39.38 62.96 40.28 95.0 Not Reported 3.80 W 4.03 W 5.82 S No 0.000 Error:Lookup 05/15/2019 06:10 AM 05/15/2019 06:15 AM 0.016 0.055 0.102 0.102 0.102 Not Reported Not Reported
05/15/2019 02:22 PM 40.64 39.92 38.66 62.96 40.28 92.0 Not Reported 4.25 SW 2.68 S 5.14 W No 0.000 Error:Lookup 05/15/2019 06:10 AM 05/15/2019 06:15 AM 0.016 0.055 0.102 0.102 0.102 Not Reported Not Reported
05/15/2019 02:27 PM 40.64 39.92 39.38 62.96 40.28 95.0 Not Reported 3.80 W 2.01 W 5.14 W Yes 0.043 Error:Lookup 05/15/2019 06:24 AM   0.020 0.055 0.110 0.110 0.110 Not Reported Not Reported
05/15/2019 02:32 PM 40.64 39.74 38.84 62.96 40.28 93.0 Not Reported 4.70 SW 4.25 SW 8.05 NW No 0.000 Error:Lookup 05/15/2019 06:24 AM 05/15/2019 06:29 AM 0.016 0.051 0.110 0.110 0.110 Not Reported Not Reported
05/15/2019 02:37 PM 40.82 40.10 39.20 62.96 40.28 94.0 Not Reported 4.25 W 4.70 SW 8.05 NW Yes 0.043 Error:Lookup 05/15/2019 06:36 AM   0.016 0.051 0.110 0.110 0.110 Not Reported Not Reported
05/15/2019 02:42 PM 41.00 39.92 39.38 62.96 40.28 93.0 Not Reported 5.14 W 3.58 W 7.61 W No 0.000 Error:Lookup 05/15/2019 06:36 AM 05/15/2019 06:41 AM 0.016 0.051 0.110 0.110 0.110 Not Reported Not Reported
05/15/2019 02:47 PM 40.82 39.74 38.30 62.96 40.28 90.0 Not Reported 4.03 SW 6.49 W 7.61 W No 0.000 Error:Lookup 05/15/2019 06:36 AM 05/15/2019 06:41 AM 0.016 0.043 0.110 0.110 0.110 Not Reported Not Reported
05/15/2019 02:52 PM 40.82 40.10 39.38 62.96 40.28 94.0 Not Reported 4.70 W 4.92 W 9.40 SW Yes 0.043 Error:Lookup 05/15/2019 06:48 AM   0.020 0.043 0.110 0.118 0.118 Not Reported Not Reported
05/15/2019 02:57 PM 41.00 40.28 39.56 62.96 40.28 94.0 Not Reported 5.37 SW 3.36 SW 9.40 SW Yes 0.043 Error:Lookup 05/15/2019 06:55 AM   0.020 0.051 0.118 0.122 0.122 Not Reported Not Reported
05/15/2019 03:02 PM 41.18 40.46 39.56 62.96 40.28 94.0 Not Reported 6.04 SW 6.71 SW 7.38 SW No 0.000 Error:Lookup 05/15/2019 06:55 AM 05/15/2019 07:00 AM 0.020 0.051 0.118 0.122 0.122 Not Reported Not Reported
05/15/2019 03:07 PM 41.18 40.28 39.20 62.96 40.28 92.0 Not Reported 6.04 W 4.47 W 7.38 SW Yes 0.043 Error:Lookup 05/15/2019 07:05 AM   0.020 0.051 0.118 0.126 0.126 Not Reported Not Reported
05/15/2019 03:12 PM 41.36 40.46 39.38 62.96 40.28 92.0 Not Reported 5.82 W 4.70 NW 7.61 SW No 0.000 Error:Lookup 05/15/2019 07:05 AM 05/15/2019 07:10 AM 0.020 0.051 0.110 0.126 0.126 Not Reported Not Reported
05/15/2019 03:17 PM 41.54 41.00 40.28 62.96 40.28 94.0 Not Reported 3.80 SW 4.92 SW 7.61 SW Yes 0.043 Error:Lookup 05/15/2019 07:14 AM   0.020 0.055 0.118 0.130 0.130 Not Reported Not Reported
05/15/2019 03:22 PM 41.36 40.64 39.92 62.96 40.28 94.0 Not Reported 4.70 W 4.03 SW 7.16 SW No 0.000 Error:Lookup 05/15/2019 07:14 AM 05/15/2019 07:19 AM 0.020 0.055 0.118 0.130 0.130 Not Reported Not Reported
05/15/2019 03:27 PM 41.54 41.00 39.92 62.96 40.28 94.0 Not Reported 4.47 SW 3.80 SW 7.16 SW No 0.000 Error:Lookup 05/15/2019 07:14 AM 05/15/2019 07:19 AM 0.020 0.055 0.118 0.130 0.130 Not Reported Not Reported
05/15/2019 03:33 PM 41.72 41.00 40.46 62.96 40.28 94.0 Not Reported 3.80 W 3.80 SW 6.49 NW Yes 0.043 Error:Lookup 05/15/2019 07:29 AM   0.020 0.059 0.122 0.134 0.134 Not Reported Not Reported
05/15/2019 03:37 PM 41.54 40.82 39.92 62.96 40.28 93.0 Not Reported 6.04 W 3.58 NW 6.49 NW No 0.000 Error:Lookup 05/15/2019 07:29 AM 05/15/2019 07:34 AM 0.020 0.059 0.122 0.134 0.134 Not Reported Not Reported
05/15/2019 03:42 PM 41.36 40.46 39.56 62.96 40.28 93.0 Not Reported 5.82 SW 4.03 SW 8.72 W No 0.000 Error:Lookup 05/15/2019 07:29 AM 05/15/2019 07:34 AM 0.020 0.055 0.122 0.134 0.134 Not Reported Not Reported
05/15/2019 03:47 PM 41.72 41.00 40.28 62.96 40.28 94.0 Not Reported 4.70 SW 6.04 W 8.72 W Yes 0.043 Error:Lookup 05/15/2019 07:43 AM   0.020 0.055 0.122 0.138 0.138 Not Reported Not Reported
05/15/2019 03:53 PM 41.54 40.82 40.28 62.78 40.28 95.0 Not Reported 4.47 SW 4.47 SW 7.38 SW Yes 0.043 Error:Lookup 05/15/2019 07:49 AM   0.020 0.059 0.118 0.142 0.142 Not Reported Not Reported
05/15/2019 03:58 PM 41.36 40.64 39.74 62.78 40.28 93.0 Not Reported 6.26 W 5.59 S 7.38 SW Yes 0.043 Error:Lookup 05/15/2019 07:57 AM   0.020 0.063 0.122 0.146 0.146 Not Reported Not Reported
05/15/2019 04:03 PM 41.36 40.82 39.74 62.78 40.28 93.0 Not Reported 5.14 SW 4.03 W 7.61 SW No 0.000 Error:Lookup 05/15/2019 07:57 AM 05/15/2019 08:02 AM 0.020 0.059 0.118 0.146 0.146 Not Reported Not Reported
05/15/2019 04:07 PM 41.36 40.64 39.92 62.78 40.28 94.0 Not Reported 6.04 SW 6.49 W 7.61 SW No 0.000 Error:Lookup 05/15/2019 07:57 AM 05/15/2019 08:02 AM 0.020 0.059 0.118 0.146 0.146 Not Reported Not Reported
05/15/2019 04:12 PM 41.36 40.46 39.38 60.08 40.28 92.0 Not Reported 6.93 SW 6.71 SW 8.95 SW No 0.000 Error:Lookup 05/15/2019 07:57 AM 05/15/2019 08:02 AM 0.020 0.055 0.118 0.146 0.146 Not Reported Not Reported
05/15/2019 04:17 PM 41.18 40.46 39.74 59.72 40.28 94.0 Not Reported 4.25 SW 3.58 SW 8.95 SW No 0.000 Error:Lookup 05/15/2019 07:57 AM 05/15/2019 08:02 AM 0.016 0.055 0.118 0.146 0.146 Not Reported Not Reported
05/15/2019 04:22 PM 41.18 40.46 39.74 59.72 40.28 94.0 Not Reported 5.14 SW 4.70 W 8.50 W Yes 0.043 Error:Lookup 05/15/2019 08:18 AM   0.020 0.059 0.122 0.150 0.150 Not Reported Not Reported
05/15/2019 04:27 PM 40.82 40.28 39.38 59.72 40.28 94.0 Not Reported 6.26 SW 6.71 W 8.50 W Yes 0.043 Error:Lookup 05/15/2019 08:27 AM   0.020 0.063 0.126 0.154 0.154 Not Reported Not Reported
05/15/2019 04:32 PM 40.82 40.10 39.20 59.54 40.28 94.0 Not Reported 4.70 W 2.91 NW 9.17 SW No 0.000 Error:Lookup 05/15/2019 08:27 AM 05/15/2019 08:32 AM 0.020 0.059 0.122 0.154 0.154 Not Reported Not Reported
05/15/2019 04:37 PM 40.64 39.92 39.20 59.36 40.28 94.0 Not Reported 6.49 SW 5.37 SW 9.17 SW No 0.000 Error:Lookup 05/15/2019 08:27 AM 05/15/2019 08:32 AM 0.020 0.055 0.122 0.154 0.154 Not Reported Not Reported
05/15/2019 04:42 PM 40.82 39.92 39.38 58.64 40.28 94.0 Not Reported 5.82 SW 6.26 SW 9.17 SW Yes 0.043 Error:Lookup 05/15/2019 08:38 AM   0.020 0.059 0.122 0.157 0.157 Not Reported Not Reported
05/15/2019 04:47 PM 40.82 40.10 39.20 58.64 40.28 94.0 Not Reported 6.71 SW 4.70 W 9.17 SW No 0.000 Error:Lookup 05/15/2019 08:38 AM 05/15/2019 08:43 AM 0.020 0.059 0.118 0.157 0.157 Not Reported Not Reported
05/15/2019 04:52 PM 40.82 40.10 39.20 58.64 40.28 94.0 Not Reported 3.80 SW 4.70 SW 8.50 SW No 0.000 Error:Lookup 05/15/2019 08:38 AM 05/15/2019 08:43 AM 0.016 0.059 0.118 0.157 0.157 Not Reported Not Reported
05/15/2019 04:57 PM 40.82 40.10 39.38 58.64 40.28 94.0 Not Reported 4.47 W 6.04 SW 8.50 SW No 0.000 Error:Lookup 05/15/2019 08:38 AM 05/15/2019 08:43 AM 0.008 0.059 0.110 0.157 0.157 Not Reported Not Reported
05/15/2019 05:02 PM 40.64 39.92 39.20 58.64 40.28 94.0 Not Reported 6.26 W 5.37 SW 7.38 SW No 0.000 Error:Lookup 05/15/2019 08:38 AM 05/15/2019 08:43 AM 0.008 0.055 0.110 0.157 0.157 Not Reported Not Reported
05/15/2019 05:07 PM 40.82 40.10 39.20 57.74 40.28 94.0 Not Reported 6.71 W 5.82 S 7.38 SW No 0.000 Error:Lookup 05/15/2019 08:38 AM 05/15/2019 08:43 AM 0.008 0.055 0.110 0.157 0.157 Not Reported Not Reported
05/15/2019 05:12 PM 40.82 39.92 39.20 57.74 40.28 93.0 Not Reported 7.61 W 8.05 SW 12.30 SW No 0.000 Error:Lookup 05/15/2019 08:38 AM 05/15/2019 08:43 AM 0.008 0.051 0.110 0.157 0.157 Not Reported Not Reported
05/15/2019 05:17 PM 40.82 40.28 39.56 57.74 40.28 94.0 Not Reported 5.82 W 4.03 W 12.30 SW No 0.000 Error:Lookup 05/15/2019 08:38 AM 05/15/2019 08:43 AM 0.008 0.051 0.102 0.157 0.157 Not Reported Not Reported
05/15/2019 05:22 PM 41.00 40.28 39.56 57.74 40.28 94.0 Not Reported 5.59 SW 5.59 SW 10.07 SW No 0.000 Error:Lookup 05/15/2019 08:38 AM 05/15/2019 08:43 AM 0.008 0.051 0.102 0.157 0.157 Not Reported Not Reported
05/15/2019 05:27 PM 41.00 40.28 39.56 57.56 40.28 94.0 Not Reported 5.14 SW 6.49 S 10.07 SW No 0.000 Error:Lookup 05/15/2019 08:38 AM 05/15/2019 08:43 AM 0.004 0.043 0.102 0.157 0.157 Not Reported Not Reported
05/15/2019 05:32 PM 41.18 40.46 39.56 57.56 40.28 93.0 Not Reported 6.26 W 6.26 SW 7.16 SW No 0.000 Error:Lookup 05/15/2019 08:38 AM 05/15/2019 08:43 AM 0.004 0.043 0.098 0.157 0.157 Not Reported Not Reported
05/15/2019 05:38 PM 41.18 40.82 39.56 57.56 40.28 93.0 Not Reported 6.04 W 5.82 SW 7.16 SW No 0.000 Error:Lookup 05/15/2019 08:38 AM 05/15/2019 08:43 AM 0.004 0.039 0.091 0.157 0.157 Not Reported Not Reported
05/15/2019 05:42 PM 41.36 40.64 39.92 57.56 40.28 94.0 Not Reported 5.14 W 5.37 W 7.61 SW No 0.000 Error:Lookup 05/15/2019 08:38 AM 05/15/2019 08:43 AM 0.000 0.039 0.091 0.157 0.157 Not Reported Not Reported
05/15/2019 05:47 PM 41.54 40.82 40.10 57.56 40.28 94.0 Not Reported 4.47 SW 4.25 W 7.61 SW No 0.000 Error:Lookup 05/15/2019 08:38 AM 05/15/2019 08:43 AM 0.000 0.039 0.091 0.157 0.157 Not Reported Not Reported
05/15/2019 05:52 PM 41.72 41.18 40.10 57.20 40.28 94.0 Not Reported 4.25 W 2.46 W 9.62 SW No 0.000 Error:Lookup 05/15/2019 08:38 AM 05/15/2019 08:43 AM 0.000 0.039 0.083 0.157 0.157 Not Reported Not Reported
05/15/2019 05:57 PM 41.72 41.00 40.10 57.20 40.28 93.0 Not Reported 4.92 W 4.47 W 9.62 SW No 0.000 Error:Lookup 05/15/2019 08:38 AM 05/15/2019 08:43 AM 0.000 0.035 0.083 0.157 0.157 Not Reported Not Reported
05/15/2019 06:02 PM 41.72 41.00 40.10 57.20 40.28 93.0 Not Reported 3.58 SW 3.80 SW 7.61 SW No 0.000 Error:Lookup 05/15/2019 08:38 AM 05/15/2019 08:43 AM 0.000 0.035 0.083 0.157 0.157 Not Reported Not Reported
05/15/2019 06:07 PM 41.90 41.00 40.10 57.20 40.28 93.0 Not Reported 4.03 SW 4.25 W 7.61 SW No 0.000 Error:Lookup 05/15/2019 08:38 AM 05/15/2019 08:43 AM 0.000 0.031 0.083 0.157 0.157 Not Reported Not Reported
05/15/2019 06:12 PM 42.26 41.00 40.28 57.20 40.28 90.0 Not Reported 4.47 SW 3.80 SW 5.37 SW No 0.000 Error:Lookup 05/15/2019 08:38 AM 05/15/2019 08:43 AM 0.000 0.031 0.083 0.157 0.157 Not Reported Not Reported
05/15/2019 06:17 PM 42.26 41.36 40.46 57.20 40.28 93.0 Not Reported 3.13 SW 4.03 SW 5.37 SW Yes 0.043 Error:Lookup 05/15/2019 10:14 AM   0.004 0.031 0.083 0.161 0.161 Not Reported Not Reported
05/15/2019 06:22 PM 42.62 41.36 39.92 57.20 40.28 90.0 Not Reported 3.58 S 2.46 N 6.93 SE No 0.000 Error:Lookup 05/15/2019 10:14 AM 05/15/2019 10:19 AM 0.004 0.031 0.083 0.161 0.161 Not Reported Not Reported
05/15/2019 06:27 PM 42.44 41.36 40.28 57.20 40.28 91.0 Not Reported 3.36 SW 3.80 W 6.93 SE No 0.000 Error:Lookup 05/15/2019 10:14 AM 05/15/2019 10:19 AM 0.004 0.031 0.083 0.161 0.161 Not Reported Not Reported
05/15/2019 06:32 PM 42.26 41.00 39.56 57.20 40.28 89.0 Not Reported 2.91 SW 1.34 SE 5.59 SW No 0.000 Error:Lookup 05/15/2019 10:14 AM 05/15/2019 10:19 AM 0.004 0.028 0.083 0.161 0.161 Not Reported Not Reported
05/15/2019 06:37 PM 42.44 41.18 39.56 56.48 40.28 89.0 Not Reported 2.46 SW 2.24 SW 5.59 SW No 0.000 Error:Lookup 05/15/2019 10:14 AM 05/15/2019 10:19 AM 0.004 0.028 0.083 0.161 0.161 Not Reported Not Reported
05/15/2019 06:42 PM 42.26 41.36 40.28 56.48 40.28 93.0 Not Reported 2.91 SW 3.58 W 6.49 SE No 0.000 Error:Lookup 05/15/2019 10:14 AM 05/15/2019 10:19 AM 0.004 0.028 0.083 0.161 0.161 Not Reported Not Reported
05/15/2019 06:47 PM 42.08 40.82 39.38 56.48 40.28 90.0 Not Reported 4.70 SW 2.91 W 6.49 SE No 0.000 Error:Lookup 05/15/2019 10:14 AM 05/15/2019 10:19 AM 0.004 0.020 0.079 0.161 0.161 Not Reported Not Reported
05/15/2019 06:52 PM 42.44 41.18 39.74 55.94 40.28 89.0 Not Reported 2.46 SW 3.13 W 7.16 W No 0.000 Error:Lookup 05/15/2019 10:14 AM 05/15/2019 10:19 AM 0.004 0.020 0.079 0.161 0.161 Not Reported Not Reported
05/15/2019 06:57 PM 42.26 40.82 39.38 55.94 40.28 89.0 Not Reported 2.24 SW 3.36 NW 7.16 W No 0.000 Error:Lookup 05/15/2019 10:14 AM 05/15/2019 10:19 AM 0.004 0.016 0.079 0.161 0.161 Not Reported Not Reported
05/15/2019 07:02 PM 42.26 40.82 39.20 55.22 40.28 88.0 Not Reported 3.13 S 4.03 SE 6.26 SW Yes 0.043 Error:Lookup 05/15/2019 10:59 AM   0.008 0.020 0.079 0.165 0.165 Not Reported Not Reported
05/15/2019 07:07 PM 42.26 41.36 40.10 55.04 40.28 91.0 Not Reported 1.12 E 2.01 E 6.26 SW Yes 0.085 Error:Lookup 05/15/2019 10:59 AM   0.016 0.028 0.083 0.169 0.169 Not Reported Not Reported
05/15/2019 07:12 PM 42.08 40.64 39.20 54.68 40.28 89.0 Not Reported 2.68 NW 2.01 NW 4.25 SE Yes 0.085 Error:Lookup 05/15/2019 10:59 AM   0.020 0.035 0.091 0.181 0.181 Not Reported Not Reported
05/15/2019 07:17 PM 41.72 40.46 39.02 54.32 40.28 89.0 Not Reported 3.36 SW 2.01 S 4.25 SE Yes 0.043 Error:Lookup 05/15/2019 10:59 AM   0.020 0.039 0.091 0.185 0.185 Not Reported Not Reported
05/15/2019 07:22 PM 41.72 40.46 39.02 54.14 40.28 90.0 Not Reported 3.36 SW 3.80 SW 5.82 SW Yes 0.085 Error:Lookup 05/15/2019 10:59 AM   0.031 0.039 0.102 0.189 0.189 Not Reported Not Reported
05/15/2019 07:27 PM 41.54 40.82 39.92 53.96 40.28 93.0 Not Reported 2.46 SW 0.89 S 5.82 SW Yes 0.043 Error:Lookup 05/15/2019 10:59 AM   0.035 0.039 0.102 0.197 0.197 Not Reported Not Reported
05/15/2019 07:32 PM 41.36 40.64 39.74 53.78 40.28 94.0 Not Reported 2.24 W 0.67 NW 4.47 SW Yes 0.043 Error:Lookup 05/15/2019 10:59 AM   0.039 0.043 0.102 0.201 0.201 Not Reported Not Reported
05/15/2019 07:37 PM 41.18 40.28 39.02 53.78 40.28 92.0 Not Reported 2.91 W 3.13 SW 4.47 SW Yes 0.043 Error:Lookup 05/15/2019 11:34 AM   0.039 0.051 0.102 0.205 0.205 Not Reported Not Reported
05/15/2019 07:42 PM 41.36 40.10 39.02 53.60 40.28 89.0 Not Reported 2.68 W 5.14 SW 3.80 W Yes 0.043 Error:Lookup 05/15/2019 11:39 AM   0.043 0.051 0.110 0.205 0.205 Not Reported Not Reported
05/15/2019 07:47 PM 41.18 40.28 39.38 53.06 40.28 93.0 Not Reported 2.24 W 2.01 NW 3.80 W Yes 0.043 Error:Lookup 05/15/2019 11:39 AM   0.051 0.055 0.110 0.209 0.209 Not Reported Not Reported
05/15/2019 07:52 PM 41.18 40.46 39.38 53.06 40.28 93.0 Not Reported 1.57 NW 1.79 W 7.38 SW Yes 0.043 Error:Lookup 05/15/2019 11:51 AM   0.055 0.059 0.118 0.217 0.217 Not Reported Not Reported
05/15/2019 07:57 PM 41.18 39.92 38.66 53.06 40.28 90.0 Not Reported 3.13 W 4.25 W 7.38 SW No 0.000 Error:Lookup 05/15/2019 11:51 AM 05/15/2019 11:56 AM 0.055 0.059 0.118 0.217 0.217 Not Reported Not Reported
05/15/2019 08:02 PM 41.00 39.92 38.84 52.70 40.28 91.0 Not Reported 1.79 W 2.68 SW 6.04 SW No 0.000 Error:Lookup 05/15/2019 11:51 AM 05/15/2019 11:56 AM 0.051 0.059 0.110 0.217 0.217 Not Reported Not Reported
05/15/2019 08:07 PM 41.00 40.28 39.56 52.34 40.28 94.0 Not Reported 1.12 W 2.68 SW 6.04 SW No 0.000 Error:Lookup 05/15/2019 11:51 AM 05/15/2019 11:56 AM 0.039 0.059 0.110 0.217 0.217 Not Reported Not Reported
05/15/2019 08:12 PM 41.18 40.10 38.84 52.16 40.28 91.0 Not Reported 2.01 SW 3.13 SW 4.47 SW No 0.000 Error:Lookup 05/15/2019 11:51 AM 05/15/2019 11:56 AM 0.035 0.059 0.110 0.217 0.217 Not Reported Not Reported
05/15/2019 08:17 PM 41.00 40.28 39.38 52.16 40.28 94.0 Not Reported 1.34 W 1.79 W 4.47 SW No 0.000 Error:Lookup 05/15/2019 11:51 AM 05/15/2019 11:56 AM 0.031 0.059 0.110 0.217 0.217 Not Reported Not Reported
05/15/2019 08:22 PM 40.82 39.92 39.20 51.98 40.28 93.0 Not Reported 1.57 SW 1.79 SW 3.13 SW No 0.000 Error:Lookup 05/15/2019 11:51 AM 05/15/2019 11:56 AM 0.020 0.059 0.110 0.217 0.217 Not Reported Not Reported
05/15/2019 08:27 PM 40.82 40.10 39.38 51.80 40.28 94.0 Not Reported 1.79 SW 1.12 SW 3.13 SW No 0.000 Error:Lookup 05/15/2019 11:51 AM 05/15/2019 11:56 AM 0.020 0.059 0.102 0.217 0.217 Not Reported Not Reported
05/15/2019 08:32 PM 40.64 39.92 39.20 51.62 40.28 94.0 Not Reported 0.45 W 0.67 SW 2.68 NW No 0.000 Error:Lookup 05/15/2019 11:51 AM 05/15/2019 11:56 AM 0.016 0.059 0.102 0.217 0.217 Not Reported Not Reported
05/15/2019 08:37 PM 40.64 39.92 38.84 51.44 40.28 93.0 Not Reported 1.79 W 0.45 W 2.68 NW No 0.000 Error:Lookup 05/15/2019 11:51 AM 05/15/2019 11:56 AM 0.008 0.059 0.102 0.217 0.217 Not Reported Not Reported
05/15/2019 08:42 PM 40.64 40.10 39.38 51.44 40.28 94.0 Not Reported 0.00 NE 0.45 NE 3.13 SW No 0.000 Error:Lookup 05/15/2019 11:51 AM 05/15/2019 11:56 AM 0.008 0.059 0.102 0.217 0.217 Not Reported Not Reported
05/15/2019 08:47 PM 40.64 40.10 39.38 51.08 40.28 95.0 Not Reported 0.00 S 0.00 SW 3.13 SW No 0.000 Error:Lookup 05/15/2019 11:51 AM 05/15/2019 11:56 AM 0.004 0.059 0.102 0.217 0.217 Not Reported Not Reported
05/15/2019 08:52 PM 40.82 39.92 39.02 51.08 40.28 93.0 Not Reported 0.89 NW 2.01 NW 1.34 NW No 0.000 Error:Lookup 05/15/2019 11:51 AM 05/15/2019 11:56 AM 0.000 0.059 0.098 0.209 0.217 Not Reported Not Reported
05/15/2019 08:57 PM 40.64 39.92 39.38 50.90 40.28 95.0 Not Reported 1.34 SW 0.22 NW 1.34 NW No 0.000 Error:Lookup 05/15/2019 11:51 AM 05/15/2019 11:56 AM 0.000 0.059 0.091 0.209 0.217 Not Reported Not Reported
05/15/2019 09:02 PM 40.64 40.10 39.56 50.90 40.28 96.0 Not Reported 1.34 W 1.34 NW 2.68 W Yes 0.043 Error:Lookup 05/15/2019 01:00 PM   0.004 0.063 0.098 0.217 0.220 Not Reported Not Reported
05/15/2019 09:07 PM 40.46 40.10 39.56 50.72 40.28 96.0 Not Reported 1.57 W 1.34 W 2.68 W No 0.000 Error:Lookup 05/15/2019 01:00 PM 05/15/2019 01:05 PM 0.004 0.063 0.091 0.209 0.220 Not Reported Not Reported
05/15/2019 09:12 PM 40.28 39.92 39.38 50.72 40.28 96.0 Not Reported 2.24 W 1.57 W 2.01 W Yes 0.043 Error:Lookup 05/15/2019 01:12 PM   0.008 0.067 0.098 0.209 0.224 Not Reported Not Reported
05/15/2019 09:17 PM 40.28 39.92 39.38 50.72 40.28 96.0 Not Reported 1.79 W 2.91 SW 2.01 W Yes 0.043 Error:Lookup 05/15/2019 01:12 PM   0.008 0.067 0.098 0.217 0.224 Not Reported Not Reported
05/15/2019 09:22 PM 40.28 39.92 39.38 50.54 40.28 96.0 Not Reported 2.46 NW 2.91 NW 3.36 SW No 0.000 Error:Lookup 05/15/2019 01:12 PM 05/15/2019 01:21 PM 0.008 0.067 0.098 0.217 0.224 Not Reported Not Reported
05/15/2019 09:27 PM 40.46 39.92 39.56 50.54 40.10 96.0 Not Reported 2.91 W 0.45 NW 3.36 SW Yes 0.043 Error:Lookup 05/15/2019 01:27 PM   0.016 0.071 0.102 0.220 0.228 Not Reported Not Reported
05/15/2019 09:32 PM 40.46 40.10 39.56 50.54 40.10 96.0 Not Reported 2.01 SW 0.45 SE 3.80 W No 0.000 Error:Lookup 05/15/2019 01:27 PM 05/15/2019 01:32 PM 0.016 0.071 0.098 0.220 0.228 Not Reported Not Reported
05/15/2019 09:37 PM 40.82 40.10 39.20 50.36 40.10 94.0 Not Reported 2.01 W 0.22 S 3.80 W Yes 0.043 Error:Lookup 05/15/2019 01:34 PM   0.020 0.075 0.102 0.224 0.236 Not Reported Not Reported
05/15/2019 09:42 PM 40.64 39.92 39.20 50.36 40.10 94.0 Not Reported 3.36 W 3.13 W 5.14 W Yes 0.043 Error:Lookup 05/15/2019 01:34 PM   0.020 0.079 0.102 0.224 0.240 Not Reported Not Reported
05/15/2019 09:47 PM 40.46 39.92 39.38 50.00 40.10 95.0 Not Reported 2.68 SW 2.01 W 5.14 W Yes 0.128 Error:Lookup 05/15/2019 01:34 PM   0.035 0.091 0.110 0.236 0.252 Not Reported Not Reported
05/15/2019 09:52 PM 40.46 39.92 39.56 49.64 40.10 96.0 Not Reported 1.34 W 1.79 SW 4.92 SW Yes 0.085 Error:Lookup 05/15/2019 01:34 PM   0.039 0.098 0.118 0.236 0.260 Not Reported Not Reported
05/15/2019 09:57 PM 40.46 39.92 39.56 49.10 40.10 96.0 Not Reported 1.79 W 2.46 W 4.92 SW Yes 0.128 Error:Lookup 05/15/2019 01:34 PM   0.055 0.110 0.126 0.244 0.272 Not Reported Not Reported
05/15/2019 10:02 PM 40.28 39.92 39.38 49.10 40.10 96.0 Not Reported 1.57 NE 0.89 NE 3.36 SW Yes 0.128 Error:Lookup 05/15/2019 01:34 PM   0.063 0.118 0.138 0.256 0.283 Not Reported Not Reported
05/15/2019 10:07 PM 40.46 39.92 39.38 49.10 40.10 96.0 Not Reported 1.57 SW 2.24 E 3.36 SW Yes 0.128 Error:Lookup 05/15/2019 01:34 PM   0.075 0.122 0.150 0.268 0.295 Not Reported Not Reported
05/15/2019 10:12 PM 40.46 39.74 39.02 49.10 40.10 94.0 Not Reported 2.01 W 3.58 NW 3.36 E Yes 0.128 Error:Lookup 05/15/2019 01:34 PM   0.083 0.126 0.161 0.280 0.307 Not Reported Not Reported
05/15/2019 10:17 PM 40.46 39.74 38.84 49.10 40.10 93.0 Not Reported 2.68 S 0.00 NE 3.36 E Yes 0.043 Error:Lookup 05/15/2019 01:34 PM   0.083 0.126 0.165 0.283 0.311 Not Reported Not Reported
05/15/2019 10:22 PM 40.46 39.74 38.84 49.10 40.10 93.0 Not Reported 2.24 NW 1.79 NW 3.58 NW Yes 0.043 Error:Lookup 05/15/2019 02:22 PM   0.083 0.122 0.165 0.287 0.315 Not Reported Not Reported
05/15/2019 10:27 PM 40.28 39.74 39.20 49.10 40.10 95.0 Not Reported 1.79 SE 0.00 SE 3.58 NW No 0.000 Error:Lookup 05/15/2019 02:22 PM 05/15/2019 02:27 PM 0.083 0.118 0.161 0.287 0.315 Not Reported Not Reported
05/15/2019 10:32 PM 40.10 39.74 39.20 49.10 40.10 96.0 Not Reported 0.22 S 0.00 SE 3.13 NW Yes 0.043 Error:Lookup 05/15/2019 02:30 PM   0.083 0.118 0.165 0.287 0.315 Not Reported Not Reported
05/15/2019 10:37 PM 40.28 39.92 39.38 49.10 40.10 96.0 Not Reported 0.67 NW 0.00 SW 3.13 NW Yes 0.085 Error:Lookup 05/15/2019 02:30 PM   0.091 0.122 0.169 0.295 0.323 Not Reported Not Reported
05/15/2019 10:42 PM 40.28 39.92 39.38 49.10 40.10 96.0 Not Reported 0.45 SE 0.00 NE 1.79 NW Yes 0.085 Error:Lookup 05/15/2019 02:30 PM   0.091 0.126 0.177 0.299 0.335 Not Reported Not Reported
05/15/2019 10:47 PM 40.28 39.74 39.38 49.10 40.10 96.0 Not Reported 0.67 SW 0.00 S 1.79 NW Yes 0.184 Error:Lookup 05/15/2019 02:30 PM   0.098 0.138 0.189 0.311 0.350 Not Reported Not Reported
05/15/2019 10:52 PM 40.10 39.74 39.20 49.10 40.10 96.0 Not Reported 1.12 SE 1.57 SE 4.25 N Yes 0.085 Error:Lookup 05/15/2019 02:30 PM   0.098 0.142 0.201 0.315 0.354 Not Reported Not Reported
05/15/2019 10:57 PM 40.10 39.56 39.20 49.10 40.10 96.0 Not Reported 0.89 NE 0.89 SW 4.25 N Yes 0.085 Error:Lookup 05/15/2019 02:30 PM   0.091 0.150 0.205 0.323 0.362 Not Reported Not Reported
05/15/2019 11:02 PM 40.28 39.74 39.02 49.10 40.10 95.0 Not Reported 2.91 N 4.25 N 3.80 SE Yes 0.085 Error:Lookup 05/15/2019 02:30 PM   0.091 0.157 0.217 0.331 0.374 Not Reported Not Reported
05/15/2019 11:07 PM 40.28 39.56 39.02 49.10 40.10 95.0 Not Reported 2.68 E 2.91 NE 3.80 SE No 0.000 Error:Lookup 05/15/2019 02:30 PM 05/15/2019 03:07 PM 0.079 0.157 0.217 0.323 0.374 Not Reported Not Reported
05/15/2019 11:12 PM 40.46 39.38 38.30 49.10 40.10 91.0 Not Reported 1.79 NW 2.46 W 4.47 NE Yes 0.043 Error:Lookup 05/15/2019 03:07 PM   0.071 0.161 0.220 0.331 0.374 Not Reported Not Reported
05/15/2019 11:17 PM 40.82 39.92 38.84 49.10 40.10 92.0 Not Reported 0.89 S 1.34 SE 4.47 NE Yes 0.043 Error:Lookup 05/15/2019 03:14 PM   0.071 0.165 0.224 0.331 0.382 Not Reported Not Reported
05/15/2019 11:22 PM 40.64 39.74 38.66 49.10 40.10 92.0 Not Reported 0.22 N 1.12 N 2.68 W No 0.000 Error:Lookup 05/15/2019 03:14 PM 05/15/2019 03:19 PM 0.067 0.165 0.224 0.331 0.382 Not Reported Not Reported
05/15/2019 11:27 PM 40.28 39.74 39.20 49.10 40.10 96.0 Not Reported 1.57 SE 0.00 SW 2.68 W Yes 0.043 Error:Lookup 05/15/2019 03:26 PM   0.071 0.165 0.224 0.331 0.382 Not Reported Not Reported
05/15/2019 11:32 PM 40.10 39.74 39.38 49.10 40.10 96.0 Not Reported 0.67 E 0.67 NW 2.24 S No 0.000 Error:Lookup 05/15/2019 03:26 PM 05/15/2019 03:31 PM 0.067 0.165 0.224 0.323 0.382 Not Reported Not Reported
05/15/2019 11:37 PM 40.46 39.92 39.20 49.10 40.10 95.0 Not Reported 1.34 E 0.67 E 2.24 S Yes 0.043 Error:Lookup 05/15/2019 03:34 PM   0.063 0.169 0.228 0.323 0.390 Not Reported Not Reported
05/15/2019 11:42 PM 40.46 39.92 39.38 49.10 40.10 95.0 Not Reported 2.01 SE 1.79 S 2.01 NE Yes 0.085 Error:Lookup 05/15/2019 03:34 PM   0.063 0.181 0.240 0.335 0.394 Not Reported Not Reported
05/15/2019 11:47 PM 40.46 39.74 39.02 49.10 40.10 94.0 Not Reported 0.22 S 0.89 E 2.01 NE Yes 0.043 Error:Lookup 05/15/2019 03:34 PM   0.051 0.185 0.244 0.335 0.402 Not Reported Not Reported
05/15/2019 11:52 PM 40.28 39.74 39.20 49.10 40.10 95.0 Not Reported 1.34 SW 0.22 SW 2.91 E Yes 0.085 Error:Lookup 05/15/2019 03:34 PM   0.051 0.189 0.252 0.335 0.409 Not Reported Not Reported
05/15/2019 11:57 PM 40.10 39.74 39.20 49.10 40.10 96.0 Not Reported 0.89 SW 0.89 SW 2.91 E Yes 0.085 Error:Lookup 05/15/2019 03:34 PM   0.051 0.201 0.260 0.343 0.413 Not Reported Not Reported